Meteo Giornale » Osservazioni meteo Brasile » Maringa
ore: 14:00 - Osservazioni Meteo Maringa
Lat. 23° 25' S Lon. 51° 57' W Alt. 542 metri s.l.m.
32 °C
Molto Nuvoloso
Temp. 24 Ore
21 °C
35 °C
Nord
29.6 Km/h
Dew point 20 °C
Umidità 49 %
Visibilità 10 Km
Il sole sorge alle ore 06:39
Il sole tramonta alle ore 18:17
| Data e Ora | Cielo e Fenomeni | T °C | DP °C | Um. % | Pres. hPa | Vis. km | Vento km/h | |
|---|---|---|---|---|---|---|---|---|
| Oggi h: 14:00 | Molto Nuvoloso | 32 | 20 | 49 | 1008 | 10 | N 29.6 | |
| Oggi h: 13:06 | Nuvoloso | 32 | 20 | 49 | 1009 | 10 | N 33.3 | |
| Oggi h: 13:00 | Nuvoloso | 32 | 20 | 49 | 1009 | 10 | N 35.2 | |
| Oggi h: 12:00 | Sereno | 30 | 19 | 51 | 1010 | 10 | N/NE 35.2 | |
| Oggi h: 11:00 | Sereno | 28 | 19 | 58 | 1010 | 10 | N/NE 35.2 | |
| Oggi h: 10:00 | Sereno | 26 | 19 | 65 | 1011 | 10 | N/NE 33.3 | |
| Oggi h: 09:00 | Sereno | 24 | 19 | 73 | 1010 | 10 | N/NE 31.5 | |
| Oggi h: 08:00 | Poco Nuvoloso | 22 | 18 | 78 | 1010 | 10 | N/NE 29.6 | |
| Oggi h: 07:00 | Sereno | 21 | 18 | 82 | 1010 | 10 | NE 27.8 | |
| Oggi h: 06:00 | Sereno | 22 | 18 | 78 | 1010 | 10 | NE 18.5 | |
| Oggi h: 05:00 | Sereno | 22 | 18 | 78 | 1010 | 10 | E 14.8 | |
| Oggi h: 04:00 | Sereno | 21 | 18 | 82 | 1011 | 10 | E 13 | |
| Oggi h: 03:00 | Sereno | 22 | 19 | 83 | 1011 | 10 | E 11.1 | |
| Oggi h: 02:00 | Sereno | 23 | 19 | 78 | 1011 | 10 | E/NE 14.8 | |
| Oggi h: 01:00 | Sereno | 22 | 19 | 83 | 1012 | 10 | N/NE 11.1 | |
| Oggi h: 00:00 | Sereno | 24 | 20 | 78 | 1012 | 10 | E 16.7 | |
| Ieri h: 23:00 | Sereno | 22 | 20 | 88 | 1011 | 10 | E/SE 14.8 | |
| Ieri h: 22:00 | Temporale nelle vicinanze | 22 | 20 | 88 | 1012 | 10 | SE 25.9 | |
| Ieri h: 21:00 | Temporale nelle vicinanze | 23 | 21 | 88 | 1012 | 10 | S/SE 25.9 | |
| Ieri h: 20:00 | Temporale | 25 | 21 | 78 | 1012 | 10 | O/NO 27.8 | |
| Ieri h: 19:00 | Temporale nelle vicinanze | 30 | 19 | 51 | 1009 | 10 | N/NO 11.1 | |
| Ieri h: 18:00 | Sereno | 32 | 19 | 46 | 1009 | 10 | N/NO 13 | |
| Ieri h: 17:00 | Sereno | 34 | 19 | 41 | 1009 | 10 | NO 27.8 | |
| Ieri h: 16:00 | Poco Nuvoloso | 35 | 18 | 36 | 1009 | 10 | NO 31.5 | |
| Ieri h: 15:00 | Nuvoloso | 35 | 19 | 39 | 1009 | 10 | N/NO 40.7 | |



